createdAt,value
2022-07-27T00:00:55.722Z,69.11
2022-07-27T00:03:28.813Z,68.57
2022-07-27T00:06:01.980Z,68.38
2022-07-27T00:08:36.778Z,68.67
2022-07-27T00:11:10.720Z,68.95
2022-07-27T00:13:45.163Z,68.32
2022-07-27T00:16:18.413Z,68.88
2022-07-27T00:18:51.514Z,68.05
2022-07-27T00:21:26.599Z,68.15
2022-07-27T00:24:01.149Z,68.39
2022-07-27T00:26:34.215Z,68.39
2022-07-27T00:29:07.455Z,68.57
2022-07-27T00:31:40.576Z,67.55
2022-07-27T00:34:13.660Z,68.26
2022-07-27T00:36:46.721Z,69.01
2022-07-27T00:39:22.482Z,68.44
2022-07-27T00:41:55.709Z,69.28
2022-07-27T00:44:30.440Z,70.80
2022-07-27T00:47:03.860Z,70.83
2022-07-27T00:49:36.985Z,69.89
2022-07-27T00:52:10.141Z,69.42
2022-07-27T00:54:45.508Z,69.95
2022-07-27T00:57:18.667Z,70.64
2022-07-27T00:59:51.844Z,70.56
2022-07-27T01:02:26.364Z,70.81
2022-07-27T01:04:59.591Z,70.78
2022-07-27T01:07:33.463Z,71.76
2022-07-27T01:10:09.402Z,72.75
2022-07-27T01:12:46.139Z,72.32
2022-07-27T01:15:19.480Z,73.00
2022-07-27T01:17:52.555Z,73.07
2022-07-27T01:20:26.019Z,72.99
2022-07-27T01:23:00.437Z,73.35
2022-07-27T01:25:33.515Z,73.33
2022-07-27T01:28:06.581Z,72.47
2022-07-27T01:30:39.725Z,74.03
2022-07-27T01:33:12.850Z,73.79
2022-07-27T01:35:46.245Z,74.36
2022-07-27T01:38:20.763Z,73.38
2022-07-27T01:40:54.751Z,73.99
2022-07-27T01:43:27.797Z,74.55
2022-07-27T01:46:01.469Z,74.08
2022-07-27T01:48:34.872Z,73.80
2022-07-27T01:51:08.165Z,73.97
2022-07-27T01:53:42.762Z,74.65
2022-07-27T01:56:15.891Z,75.13
2022-07-27T01:58:49.017Z,74.54
2022-07-27T02:01:22.233Z,75.25
2022-07-27T02:03:55.383Z,75.39
2022-07-27T02:06:28.471Z,75.26
2022-07-27T02:09:02.871Z,73.88
2022-07-27T02:11:53.730Z,73.57
2022-07-27T02:14:26.755Z,73.69
2022-07-27T02:17:01.196Z,74.24
2022-07-27T02:19:35.498Z,74.93
2022-07-27T02:22:08.650Z,74.06
2022-07-27T02:24:43.110Z,74.20
2022-07-27T02:27:16.220Z,74.36
2022-07-27T02:29:49.347Z,74.43
2022-07-27T02:32:22.983Z,74.75
2022-07-27T02:34:56.147Z,74.94
2022-07-27T02:37:29.243Z,73.84
2022-07-27T02:40:03.977Z,74.95
2022-07-27T02:42:37.049Z,75.90
2022-07-27T02:45:11.328Z,75.38
2022-07-27T02:47:44.735Z,76.63
2022-07-27T02:50:17.927Z,77.20
2022-07-27T02:52:50.991Z,76.62
2022-07-27T02:55:25.475Z,76.15
2022-07-27T02:57:58.547Z,75.27
2022-07-27T03:00:31.838Z,75.51
2022-07-27T03:03:05.092Z,75.70
2022-07-27T03:05:38.192Z,75.68
2022-07-27T03:08:11.615Z,75.72
2022-07-27T03:10:48.716Z,76.36
2022-07-27T03:13:22.347Z,76.86
2022-07-27T03:15:55.767Z,78.39
2022-07-27T03:18:28.983Z,76.81
2022-07-27T03:21:02.087Z,76.34
2022-07-27T03:23:35.182Z,77.65
2022-07-27T03:26:09.659Z,77.95
2022-07-27T03:28:42.740Z,76.06
2022-07-27T03:31:16.247Z,77.26
2022-07-27T03:33:49.381Z,77.04
2022-07-27T03:36:22.567Z,77.75
2022-07-27T03:38:55.811Z,77.42
2022-07-27T03:41:30.298Z,76.94
2022-07-27T03:44:03.411Z,77.42
2022-07-27T03:46:36.480Z,78.36
2022-07-27T03:49:14.958Z,78.20
2022-07-27T03:51:48.287Z,77.88
2022-07-27T03:54:21.377Z,76.92
2022-07-27T03:56:55.795Z,76.71
2022-07-27T03:59:28.955Z,76.44
2022-07-27T04:02:02.104Z,76.32
2022-07-27T04:04:35.268Z,76.13
2022-07-27T04:07:08.831Z,75.51
2022-07-27T04:09:42.025Z,75.42
2022-07-27T04:12:20.082Z,75.90
2022-07-27T04:14:53.798Z,76.51
2022-07-27T04:17:54.070Z,76.70
2022-07-27T04:20:20.168Z,77.16
2022-07-27T04:22:53.296Z,76.28
2022-07-27T04:25:26.638Z,76.28
2022-07-27T04:28:01.093Z,76.03
2022-07-27T04:30:34.386Z,77.25
2022-07-27T04:33:07.535Z,77.20
2022-07-27T04:35:40.626Z,76.41
2022-07-27T04:38:13.725Z,76.09
2022-07-27T04:40:46.808Z,77.08
2022-07-27T04:43:21.263Z,77.11
2022-07-27T04:45:54.499Z,76.20
2022-07-27T04:48:27.636Z,76.59
2022-07-27T04:51:01.246Z,76.45
2022-07-27T04:53:35.901Z,74.88
2022-07-27T04:56:09.823Z,76.09
2022-07-27T04:58:44.308Z,75.62
2022-07-27T05:01:17.446Z,74.74
2022-07-27T05:03:50.783Z,75.05
2022-07-27T05:06:24.131Z,74.31
2022-07-27T05:08:57.222Z,74.13
2022-07-27T05:11:30.438Z,73.89
2022-07-27T05:14:05.044Z,74.06
2022-07-27T05:16:40.548Z,74.47
2022-07-27T05:19:14.089Z,74.32
2022-07-27T05:21:47.644Z,74.16
2022-07-27T05:24:20.779Z,73.71
2022-07-27T05:26:53.999Z,73.85
2022-07-27T05:29:28.517Z,72.79
2022-07-27T05:32:01.678Z,72.37
2022-07-27T05:34:34.872Z,71.81
2022-07-27T05:37:07.964Z,71.61
2022-07-27T05:39:42.237Z,70.58
2022-07-27T05:42:15.372Z,69.78
2022-07-27T05:44:49.997Z,69.65
2022-07-27T05:47:23.216Z,69.84
2022-07-27T05:49:56.288Z,70.07
2022-07-27T05:52:29.445Z,70.29
2022-07-27T05:55:02.603Z,70.03
2022-07-27T05:57:35.940Z,69.70
2022-07-27T06:00:12.794Z,70.09
2022-07-27T06:02:45.890Z,69.92
2022-07-27T06:05:18.996Z,69.46
2022-07-27T06:08:00.623Z,68.57
2022-07-27T06:10:36.718Z,69.12
2022-07-27T06:13:12.521Z,68.45
2022-07-27T06:15:46.983Z,68.44
2022-07-27T06:18:20.042Z,67.69
2022-07-27T06:20:53.144Z,67.25
2022-07-27T06:23:26.674Z,66.14
2022-07-27T06:25:59.947Z,64.55
2022-07-27T06:28:33.142Z,63.90
2022-07-27T06:31:07.684Z,61.96
2022-07-27T06:33:43.390Z,61.92
2022-07-27T06:36:19.220Z,61.67
2022-07-27T06:38:52.316Z,61.26
2022-07-27T06:41:25.386Z,60.28
2022-07-27T06:43:58.476Z,59.66
2022-07-27T06:46:32.964Z,59.73
2022-07-27T06:49:06.441Z,59.52
2022-07-27T06:51:40.198Z,59.21
2022-07-27T06:54:13.317Z,56.98
2022-07-27T06:56:46.671Z,56.46
2022-07-27T06:59:19.778Z,54.11
2022-07-27T07:01:54.236Z,53.32
2022-07-27T07:04:27.384Z,53.28
2022-07-27T07:07:06.667Z,51.92
2022-07-27T07:09:40.280Z,50.36
2022-07-27T07:12:14.102Z,48.23
2022-07-27T07:14:47.254Z,46.87
2022-07-27T07:17:21.677Z,45.47
2022-07-27T07:19:54.783Z,44.85
2022-07-27T07:22:27.953Z,45.30
2022-07-27T07:25:03.139Z,45.78
2022-07-27T07:27:36.673Z,45.34
2022-07-27T07:30:10.837Z,44.74
2022-07-27T07:32:45.420Z,43.89
2022-07-27T07:35:18.953Z,42.32
2022-07-27T07:37:52.273Z,42.40
2022-07-27T07:40:42.505Z,43.09
2022-07-27T07:43:16.865Z,43.59
2022-07-27T07:45:51.439Z,43.19
2022-07-27T07:48:26.472Z,44.34
2022-07-27T07:50:59.582Z,44.59
2022-07-27T07:53:35.502Z,45.52
2022-07-27T07:56:11.067Z,45.49
2022-07-27T07:58:44.180Z,45.67
2022-07-27T08:01:17.378Z,45.38
2022-07-27T08:03:52.364Z,45.57
2022-07-27T08:06:25.528Z,45.42
2022-07-27T08:08:58.687Z,45.63
2022-07-27T08:11:31.795Z,45.94
2022-07-27T08:14:04.907Z,46.04
2022-07-27T08:16:38.152Z,45.31
2022-07-27T08:19:12.954Z,45.09
2022-07-27T08:21:46.245Z,45.18
2022-07-27T08:24:19.653Z,44.72
2022-07-27T08:26:52.794Z,45.61
2022-07-27T08:29:36.821Z,45.28
2022-07-27T08:32:10.569Z,45.19
2022-07-27T08:34:45.035Z,46.00
2022-07-27T08:37:18.194Z,45.96
2022-07-27T08:40:37.939Z,46.41
2022-07-27T08:42:45.665Z,45.82
2022-07-27T08:45:24.325Z,46.36
2022-07-27T08:47:58.284Z,45.81
2022-07-27T08:50:34.785Z,46.75
2022-07-27T08:53:12.002Z,46.51
2022-07-27T08:55:48.490Z,47.13
2022-07-27T08:58:21.804Z,46.29
2022-07-27T09:00:55.106Z,45.84
2022-07-27T09:03:28.294Z,45.62
2022-07-27T09:06:04.010Z,44.70
2022-07-27T09:08:38.515Z,45.07
2022-07-27T09:11:16.493Z,44.70
2022-07-27T09:13:49.597Z,44.50
2022-07-27T09:17:02.949Z,44.30
2022-07-27T09:19:24.967Z,43.93
2022-07-27T09:21:59.396Z,44.76
2022-07-27T09:24:48.151Z,44.38
2022-07-27T09:27:31.953Z,44.52
2022-07-27T09:30:07.671Z,44.06
2022-07-27T09:32:52.953Z,44.32
2022-07-27T09:35:30.003Z,44.54
2022-07-27T09:41:02.816Z,44.07
2022-07-27T09:46:44.738Z,44.11
2022-07-27T09:49:31.282Z,44.34
2022-07-27T09:52:05.748Z,44.32
2022-07-27T09:54:45.196Z,43.07
2022-07-27T09:57:19.956Z,43.83
2022-07-27T10:00:11.086Z,43.93
2022-07-27T10:02:45.225Z,43.79
2022-07-27T10:05:21.373Z,43.07
2022-07-27T10:07:56.284Z,42.06
2022-07-27T10:10:29.687Z,40.75
2022-07-27T10:13:04.185Z,41.72
2022-07-27T10:15:41.425Z,41.25
2022-07-27T10:18:22.257Z,41.63
2022-07-27T10:21:05.347Z,41.46
2022-07-27T10:23:39.214Z,41.46
2022-07-27T10:26:28.374Z,40.57
2022-07-27T10:29:06.037Z,40.42
2022-07-27T10:31:41.268Z,41.61
2022-07-27T10:34:14.938Z,41.93
2022-07-27T10:36:52.062Z,41.99
2022-07-27T10:39:37.708Z,43.12
2022-07-27T10:42:24.512Z,41.94
2022-07-27T10:45:02.675Z,42.76
2022-07-27T10:47:43.225Z,43.46
2022-07-27T10:50:37.918Z,43.10
2022-07-27T10:53:15.380Z,43.50
2022-07-27T10:55:53.215Z,43.37
2022-07-27T10:58:50.288Z,42.98
2022-07-27T11:01:24.983Z,42.76
2022-07-27T11:04:10.695Z,42.97
2022-07-27T11:07:22.470Z,41.52
2022-07-27T11:12:36.636Z,39.97
2022-07-27T11:15:11.161Z,41.32
2022-07-27T11:18:01.031Z,41.12
2022-07-27T11:20:37.259Z,39.79
2022-07-27T11:23:50.385Z,39.53
2022-07-27T11:26:14.320Z,39.27
2022-07-27T11:28:47.620Z,38.16
2022-07-27T11:31:38.703Z,38.62
2022-07-27T11:34:17.532Z,39.03
2022-07-27T11:36:51.454Z,39.10
2022-07-27T11:42:23.445Z,39.24
2022-07-27T11:44:57.065Z,38.41
2022-07-27T11:47:30.598Z,38.34
2022-07-27T11:50:11.657Z,38.96
2022-07-27T11:52:44.939Z,38.25
2022-07-27T11:55:18.138Z,38.59
2022-07-27T11:57:51.233Z,38.56
2022-07-27T12:00:24.581Z,38.23
2022-07-27T12:02:57.819Z,39.58
2022-07-27T12:05:32.792Z,39.09
2022-07-27T12:08:06.903Z,39.65
2022-07-27T12:10:40.202Z,40.19
2022-07-27T12:13:19.742Z,40.07
2022-07-27T12:15:58.441Z,40.01
2022-07-27T12:18:43.706Z,38.66
2022-07-27T12:21:19.032Z,38.48
2022-07-27T12:23:53.361Z,37.48
2022-07-27T12:26:29.950Z,37.64
2022-07-27T12:29:08.202Z,39.27
2022-07-27T12:31:50.465Z,39.04
2022-07-27T12:34:23.557Z,39.32
2022-07-27T12:36:58.052Z,39.26
2022-07-27T12:39:32.740Z,38.66
2022-07-27T12:42:08.262Z,38.14
2022-07-27T12:44:44.145Z,37.72
2022-07-27T12:47:35.124Z,37.69
2022-07-27T12:50:11.582Z,38.12
2022-07-27T12:52:50.944Z,35.92
2022-07-27T12:55:24.975Z,36.70
2022-07-27T12:57:58.142Z,36.33
2022-07-27T13:00:34.162Z,35.31
2022-07-27T13:03:08.125Z,36.53
2022-07-27T13:05:41.526Z,35.01
2022-07-27T13:08:17.108Z,37.20
2022-07-27T13:10:52.193Z,38.55
2022-07-27T13:13:25.392Z,38.22
2022-07-27T13:15:58.500Z,38.20
2022-07-27T13:18:31.746Z,38.27
2022-07-27T13:21:05.090Z,37.65
2022-07-27T13:23:39.594Z,37.52
2022-07-27T13:26:12.939Z,36.39
2022-07-27T13:28:48.111Z,36.96
2022-07-27T13:31:21.427Z,36.51
2022-07-27T13:33:54.773Z,37.07
2022-07-27T13:36:28.240Z,36.77
2022-07-27T13:39:03.165Z,38.13
2022-07-27T13:41:37.092Z,38.04
2022-07-27T13:44:30.069Z,37.76
2022-07-27T13:47:03.630Z,37.67
2022-07-27T13:49:37.308Z,37.67
2022-07-27T13:52:14.751Z,37.46
2022-07-27T13:54:49.293Z,37.38
2022-07-27T13:57:22.398Z,37.04
2022-07-27T13:59:55.531Z,36.29
2022-07-27T14:02:28.698Z,36.87
2022-07-27T14:05:02.534Z,37.68
2022-07-27T14:07:37.502Z,38.85
2022-07-27T14:10:39.502Z,38.09
2022-07-27T14:13:15.206Z,37.85
2022-07-27T14:15:53.171Z,38.37
2022-07-27T14:18:30.533Z,38.00
2022-07-27T14:21:06.952Z,38.45
2022-07-27T14:23:40.519Z,37.66
2022-07-27T14:26:15.251Z,38.01
2022-07-27T14:28:48.323Z,38.00
2022-07-27T14:31:21.594Z,37.06
2022-07-27T14:33:54.701Z,37.23
2022-07-27T14:36:27.795Z,38.00
2022-07-27T14:39:00.919Z,38.26
2022-07-27T14:41:35.650Z,38.06
2022-07-27T14:44:08.794Z,38.04
2022-07-27T14:46:41.978Z,37.18
2022-07-27T14:49:15.527Z,36.94
2022-07-27T14:51:49.268Z,36.66
2022-07-27T14:54:22.430Z,37.46
2022-07-27T14:56:56.833Z,37.13
2022-07-27T14:59:29.945Z,37.20
2022-07-27T15:02:03.145Z,36.30
2022-07-27T15:04:36.507Z,36.03
2022-07-27T15:07:09.616Z,35.51
2022-07-27T15:09:42.783Z,35.81
2022-07-27T15:12:17.388Z,35.96
2022-07-27T15:14:50.559Z,36.58
2022-07-27T15:17:23.795Z,37.94
2022-07-27T15:19:56.942Z,37.50
2022-07-27T15:22:30.275Z,37.63
2022-07-27T15:25:03.692Z,37.54
2022-07-27T15:27:38.145Z,37.07
2022-07-27T15:30:12.220Z,37.03
2022-07-27T15:32:45.329Z,37.32
2022-07-27T15:35:19.558Z,37.21
2022-07-27T15:37:53.564Z,37.19
2022-07-27T15:40:41.653Z,36.89
2022-07-27T15:43:18.538Z,37.14
2022-07-27T15:45:52.423Z,37.03
2022-07-27T15:48:26.155Z,37.49
2022-07-27T15:50:59.702Z,37.18
2022-07-27T15:53:33.243Z,36.44
2022-07-27T15:56:07.043Z,36.72
2022-07-27T15:58:41.666Z,36.44
2022-07-27T16:01:14.858Z,37.24
2022-07-27T16:03:48.315Z,36.97
2022-07-27T16:06:21.572Z,37.16
2022-07-27T16:08:54.679Z,36.57
2022-07-27T16:11:28.022Z,36.84
2022-07-27T16:14:02.494Z,37.26
2022-07-27T16:16:35.740Z,37.06
2022-07-27T16:19:13.100Z,37.61
2022-07-27T16:21:54.004Z,38.16
2022-07-27T16:24:28.964Z,37.49
2022-07-27T16:27:06.431Z,37.24
2022-07-27T16:29:41.054Z,36.96
2022-07-27T16:32:14.223Z,37.63
2022-07-27T16:34:47.321Z,36.75
2022-07-27T16:37:20.673Z,37.18
2022-07-27T16:39:53.791Z,37.27
2022-07-27T16:42:26.938Z,38.14
2022-07-27T16:45:01.367Z,37.33
2022-07-27T16:47:34.498Z,37.81
2022-07-27T16:50:09.586Z,37.76
2022-07-27T16:52:42.657Z,38.07
2022-07-27T16:55:15.969Z,38.84
2022-07-27T16:57:49.128Z,38.09
2022-07-27T17:00:23.868Z,38.69
2022-07-27T17:02:57.310Z,38.18
2022-07-27T17:05:30.444Z,38.36
2022-07-27T17:08:03.541Z,38.17
2022-07-27T17:10:36.900Z,38.62
2022-07-27T17:13:13.559Z,38.85
2022-07-27T17:15:48.270Z,39.13
2022-07-27T17:18:22.656Z,38.75
2022-07-27T17:20:55.793Z,38.59
2022-07-27T17:23:33.460Z,38.98
2022-07-27T17:26:07.444Z,39.51
2022-07-27T17:28:41.216Z,39.05
2022-07-27T17:31:15.719Z,39.48
2022-07-27T17:33:49.136Z,39.37
2022-07-27T17:36:22.714Z,39.43
2022-07-27T17:38:56.159Z,40.16
2022-07-27T17:41:29.737Z,39.69
2022-07-27T17:44:02.892Z,39.66
2022-07-27T17:46:39.130Z,39.60
2022-07-27T17:49:12.617Z,39.78
2022-07-27T17:51:45.949Z,40.84
2022-07-27T17:54:19.036Z,40.21
2022-07-27T17:56:53.094Z,39.68
2022-07-27T17:59:37.560Z,39.57
2022-07-27T18:02:13.740Z,40.74
2022-07-27T18:04:47.500Z,40.69
2022-07-27T18:07:20.669Z,41.04
2022-07-27T18:09:53.857Z,40.87
2022-07-27T18:12:27.002Z,40.68
2022-07-27T18:15:17.916Z,40.83
2022-07-27T18:17:52.460Z,41.20
2022-07-27T18:20:25.865Z,41.35
2022-07-27T18:22:59.053Z,41.46
2022-07-27T18:25:32.264Z,41.42
2022-07-27T18:28:06.155Z,41.62
2022-07-27T18:30:39.309Z,41.74
2022-07-27T18:33:14.473Z,42.05
2022-07-27T18:35:47.980Z,42.16
2022-07-27T18:38:21.169Z,41.96
2022-07-27T18:40:54.291Z,41.83
2022-07-27T18:43:27.384Z,42.05
2022-07-27T18:46:00.670Z,42.26
2022-07-27T18:48:35.307Z,42.20
2022-07-27T18:51:08.425Z,42.38
2022-07-27T18:53:43.947Z,42.51
2022-07-27T18:56:17.076Z,42.60
2022-07-27T18:58:50.175Z,42.83
2022-07-27T19:01:23.316Z,42.78
2022-07-27T19:03:57.811Z,42.91
2022-07-27T19:06:31.117Z,43.34
2022-07-27T19:09:04.925Z,43.73
2022-07-27T19:11:38.058Z,43.82
2022-07-27T19:14:11.285Z,43.76
2022-07-27T19:16:44.468Z,44.02
2022-07-27T19:19:23.146Z,43.83
2022-07-27T19:21:56.651Z,44.02
2022-07-27T19:24:29.784Z,44.45
2022-07-27T19:27:02.917Z,44.35
2022-07-27T19:29:36.020Z,45.54
2022-07-27T19:32:09.970Z,44.93
2022-07-27T19:34:44.638Z,44.89
2022-07-27T19:37:17.722Z,44.79
2022-07-27T19:39:57.291Z,44.93
2022-07-27T19:42:39.780Z,44.56
2022-07-27T19:45:12.935Z,45.52
2022-07-27T19:47:46.021Z,45.61
2022-07-27T19:50:21.754Z,45.47
2022-07-27T19:52:54.970Z,44.99
2022-07-27T19:55:28.411Z,44.66
2022-07-27T19:58:02.271Z,45.53
2022-07-27T20:00:35.398Z,46.00
2022-07-27T20:03:08.796Z,47.71
2022-07-27T20:05:43.290Z,46.86
2022-07-27T20:08:16.695Z,45.36
2022-07-27T20:10:49.906Z,45.57
2022-07-27T20:13:23.431Z,47.18
2022-07-27T20:15:56.503Z,47.30
2022-07-27T20:18:30.648Z,48.33
2022-07-27T20:21:22.467Z,49.62
2022-07-27T20:23:57.832Z,49.52
2022-07-27T20:26:31.709Z,49.45
2022-07-27T20:29:04.797Z,47.61
2022-07-27T20:31:38.531Z,47.84
2022-07-27T20:34:11.767Z,47.78
2022-07-27T20:36:46.187Z,48.81
2022-07-27T20:39:19.590Z,49.40
2022-07-27T20:41:52.958Z,50.78
2022-07-27T20:44:27.604Z,50.69
2022-07-27T20:47:00.818Z,48.70
2022-07-27T20:49:34.331Z,49.13
2022-07-27T20:52:09.829Z,48.56
2022-07-27T20:54:43.175Z,48.56
2022-07-27T20:57:16.296Z,48.40
2022-07-27T20:59:49.372Z,48.18
2022-07-27T21:02:22.592Z,48.25
2022-07-27T21:04:55.721Z,48.00
2022-07-27T21:07:30.816Z,47.71
2022-07-27T21:10:05.271Z,48.19
2022-07-27T21:12:38.362Z,48.07
2022-07-27T21:15:13.641Z,48.18
2022-07-27T21:17:46.946Z,47.82
2022-07-27T21:20:20.192Z,49.31
2022-07-27T21:23:08.620Z,50.29
2022-07-27T21:25:43.370Z,52.44
2022-07-27T21:28:18.674Z,52.08
2022-07-27T21:30:57.227Z,52.37
2022-07-27T21:33:33.720Z,52.25
2022-07-27T21:36:09.651Z,54.08
2022-07-27T21:38:44.063Z,53.11
2022-07-27T21:41:17.536Z,55.41
2022-07-27T21:43:50.769Z,54.70
2022-07-27T21:46:24.061Z,54.32
2022-07-27T21:48:57.317Z,54.17
2022-07-27T21:51:30.522Z,55.05
2022-07-27T21:54:05.488Z,55.83
2022-07-27T21:56:41.086Z,53.44
2022-07-27T21:59:17.734Z,53.74
2022-07-27T22:01:50.814Z,53.76
2022-07-27T22:04:23.995Z,53.59
2022-07-27T22:06:57.113Z,52.98
2022-07-27T22:09:31.731Z,54.32
2022-07-27T22:12:05.428Z,53.57
2022-07-27T22:14:38.527Z,53.92
2022-07-27T22:17:11.611Z,53.21
2022-07-27T22:19:44.699Z,53.53
2022-07-27T22:22:17.798Z,55.19
2022-07-27T22:24:52.228Z,54.37
2022-07-27T22:27:25.707Z,54.38
2022-07-27T22:29:58.821Z,54.46
2022-07-27T22:32:31.923Z,54.92
2022-07-27T22:35:05.692Z,53.87
2022-07-27T22:37:38.796Z,52.30
2022-07-27T22:40:13.504Z,52.92
2022-07-27T22:42:47.006Z,54.41
2022-07-27T22:45:20.584Z,56.14
2022-07-27T22:47:53.724Z,54.93
2022-07-27T22:50:27.195Z,54.75
2022-07-27T22:53:00.351Z,54.55
2022-07-27T22:55:34.802Z,52.44
2022-07-27T22:58:08.089Z,54.02
2022-07-27T23:00:41.494Z,53.77
2022-07-27T23:03:14.746Z,56.12
2022-07-27T23:05:47.889Z,56.32
2022-07-27T23:08:21.119Z,56.63
2022-07-27T23:10:55.549Z,56.78
2022-07-27T23:13:33.627Z,56.93
2022-07-27T23:16:07.323Z,56.15
2022-07-27T23:18:40.443Z,55.84
2022-07-27T23:21:13.557Z,55.77
2022-07-27T23:23:53.346Z,54.58
2022-07-27T23:26:28.644Z,54.84
2022-07-27T23:29:02.109Z,55.42
2022-07-27T23:31:35.767Z,55.25
2022-07-27T23:34:08.913Z,54.64
2022-07-27T23:36:43.615Z,54.24
2022-07-27T23:39:16.856Z,55.29
2022-07-27T23:41:51.322Z,56.48
2022-07-27T23:44:24.465Z,56.47
2022-07-27T23:46:57.702Z,56.57
2022-07-27T23:49:30.878Z,55.80
2022-07-27T23:52:04.659Z,56.54
2022-07-27T23:54:37.789Z,57.96
2022-07-27T23:57:12.235Z,56.56
2022-07-27T23:59:45.485Z,58.26
